עמוד ראשי
METAR-TAF:

METAR-TAF

שדות תעופה :

טגוסיגלפה, הונדורס

קו רוחב: 14-03N, קו אורך: 087-13W, גובה: 994מטר

תצפית מזג אוויר נוכחית

הדו"ח נערך לפני 46דקות, בשעה 07:00 UTC
רוח רגועה
טמפרטורת 23 צלסיוס
לחות 89%
לחץ 1018 hPa
ראות: 7000מטר
עננים פזורים בגובה 3000רגל

METAR: MHTG 260700Z 00000KT 7000 SCT030 23/21 Q1018 A3006 NOSIG

זמן: 01:46 (07:46 UTC)

תחזית

הדו"ח נערך לפני 2 שעות ו 46דקות, בשעה 05:00 UTC
תחזית בתוקף מ 26 ב 06 UTC עד 27 ב 06 UTC
רוח 3קשר עם כיוונים משתנים
ראות: 8000מטר
עננים פזורים בגובה 2800רגל
יעשה מ
26 ב 10 UTC עד 26 ב 12 UTC
ראות: 4000מטר
עשן
יעשה מ
26 ב 16 UTC עד 26 ב 18 UTC
רוח 10קשר מכיוון דרום
ראות: 8000מטר
עננים פזורים בגובה 3000רגל , קומולוס מיגדלי.
זמנית מ -
26 ב 22 UTC עד 27 ב 02 UTC
ראות: 6000מטר
עננים פזורים בגובה 3400רגל , קומולונימבוס.
יעשה מ
27 ב 02 UTC עד 27 ב 04 UTC
רוח 3קשר עם כיוונים משתנים
עננים פזורים בגובה 3000רגל

TAF: MHTG 260500Z 2606/2706 VRB03KT 8000 SCT028 TX32/2620Z TN19/2612Z BECMG 2610/2612 4000 FU BECMG 2616/2618 18010KT 8000 SCT030TCU TEMPO 2622/2702 6000 TSSHRA SCT034CB BECMG 2702/2704 VRB03KT SCT030

תצפיות ותחזיות מזג אוויר לגבי יותר מ- 4,000 שדות תעופה ברחבי העולם. דוחות METAR ו- TAF.

התחנות הזמינות מסומנות בנקודות צהובות ואדומות על גבי המפה.

העבר את העכבר לנקודה הצבעונית על מנת לראות את שם התחנה.

לאחר מכן, לחץ כדי לראות את תוכן ואת תחזיות מזג האוויר.

כדי לשנות את המפה: לחץ על הכפתורים הירוקים עם הפלוס השחור כדי להתקרב; על הכפתור הירוק עם המקף כדי להתרחק; או בחיצים הירוקים למפות סמוכות.


METAR-TAF: